Time;durP1;ratioP1;P1;durP2;ratioP2;P2;SDS_P1;SDS_P2;PMS_P1;PMS_P2;Temp;Humidity;BMP_temperature;BMP_pressure;BME280_temperature;BME280_humidity;BME280_pressure;Samples;Min_cycle;Max_cycle;Signal;HPM_P1;HPM_P2
2023/08/07 00:00:37;;;;;;;4.75;4.25;;;20.20;93.00;;;;;;5075185;28;20625;-86
2023/08/07 00:03:03;;;;;;;4.65;4.22;;;20.20;92.90;;;;;;5058593;28;20634;-84
2023/08/07 00:05:30;;;;;;;4.97;4.35;;;20.20;92.90;;;;;;5075212;28;20189;-86
2023/08/07 00:07:56;;;;;;;4.85;4.35;;;20.20;92.90;;;;;;5076441;28;20199;-86
2023/08/07 00:10:22;;;;;;;4.82;4.25;;;20.10;92.90;;;;;;5058247;28;20188;-86
2023/08/07 00:12:48;;;;;;;4.55;4.05;;;20.10;92.90;;;;;;5075124;28;20161;-83
2023/08/07 00:15:14;;;;;;;5.00;4.43;;;20.20;93.00;;;;;;5075338;28;20200;-87
2023/08/07 00:17:40;;;;;;;5.30;4.70;;;20.10;92.90;;;;;;5074930;28;20627;-84
2023/08/07 00:20:07;;;;;;;5.80;4.80;;;20.10;92.90;;;;;;5075235;28;20197;-85
2023/08/07 00:22:33;;;;;;;5.20;4.70;;;20.20;92.90;;;;;;5058590;28;20535;-85
2023/08/07 00:24:59;;;;;;;4.53;4.13;;;20.10;92.90;;;;;;5075983;28;20204;-86
2023/08/07 00:27:25;;;;;;;4.50;4.10;;;20.20;92.90;;;;;;5074985;28;20489;-84
2023/08/07 00:29:51;;;;;;;5.05;4.50;;;20.20;92.80;;;;;;5074747;28;20183;-86
2023/08/07 00:32:17;;;;;;;5.75;4.45;;;20.20;92.80;;;;;;5074841;28;20160;-84
2023/08/07 00:34:43;;;;;;;4.97;4.47;;;20.10;92.80;;;;;;5075051;28;20553;-84
2023/08/07 00:37:09;;;;;;;5.00;4.30;;;20.20;92.90;;;;;;5074608;28;20154;-84
2023/08/07 00:39:35;;;;;;;4.72;4.22;;;20.20;93.00;;;;;;5075691;28;20244;-83
2023/08/07 00:42:01;;;;;;;4.88;4.38;;;20.10;92.80;;;;;;5075835;28;20185;-83
2023/08/07 00:44:27;;;;;;;5.20;4.65;;;20.10;93.00;;;;;;5074350;28;20689;-84
2023/08/07 00:46:53;;;;;;;5.50;4.55;;;20.10;93.00;;;;;;5075034;28;20669;-86
2023/08/07 00:49:19;;;;;;;5.18;4.60;;;20.10;93.00;;;;;;5074362;28;20204;-86
2023/08/07 00:51:45;;;;;;;5.03;4.53;;;20.10;92.90;;;;;;5074757;28;20215;-87
2023/08/07 00:54:12;;;;;;;4.82;4.32;;;20.10;92.90;;;;;;5075723;28;20153;-84
2023/08/07 00:56:38;;;;;;;5.00;4.43;;;20.10;92.90;;;;;;5074622;28;20150;-86
2023/08/07 00:59:04;;;;;;;5.20;4.65;;;20.10;93.00;;;;;;5057741;28;20157;-86
2023/08/07 01:01:30;;;;;;;5.03;4.47;;;20.10;93.00;;;;;;5058311;28;20190;-87
2023/08/07 01:03:56;;;;;;;5.15;4.60;;;20.00;93.00;;;;;;5074257;28;20173;-86
2023/08/07 01:06:22;;;;;;;4.80;4.30;;;20.10;93.10;;;;;;5074688;28;20165;-86
2023/08/07 01:08:48;;;;;;;4.82;4.28;;;20.10;93.00;;;;;;5074029;28;20150;-86
2023/08/07 01:11:36;;;;;;;6.00;4.60;;;20.10;92.80;;;;;;5075324;28;20248;-88
2023/08/07 01:14:20;;;;;;;4.50;4.10;;;20.10;93.30;;;;;;5060899;28;20215;-86
2023/08/07 01:16:50;;;;;;;4.97;4.47;;;20.10;92.90;;;;;;5075290;28;20191;-87
2023/08/07 01:19:25;;;;;;;5.07;4.53;;;20.10;92.90;;;;;;5074055;28;20242;-84
2023/08/07 01:22:08;;;;;;;5.22;4.43;;;20.10;93.00;;;;;;5075069;28;20173;-86
2023/08/07 01:24:35;;;;;;;4.68;4.25;;;20.00;93.10;;;;;;5074259;28;20165;-84
2023/08/07 01:27:28;;;;;;;5.57;4.82;;;20.10;93.10;;;;;;5074062;28;20241;-85
2023/08/07 01:30:16;;;;;;;4.72;4.18;;;20.10;93.00;;;;;;5075085;28;20256;-86
2023/08/07 01:33:10;;;;;;;5.25;4.75;;;20.10;93.00;;;;;;5074810;28;20483;-87
2023/08/07 01:35:42;;;;;;;5.05;4.25;;;20.10;93.00;;;;;;5075022;28;20161;-86
2023/08/07 01:38:08;;;;;;;5.22;4.72;;;20.10;92.90;;;;;;5056809;28;20700;-87
2023/08/07 01:40:34;;;;;;;5.22;4.40;;;20.10;93.00;;;;;;5073451;28;20212;-86
2023/08/07 01:43:00;;;;;;;5.25;4.75;;;20.10;93.00;;;;;;5056652;28;20161;-85
2023/08/07 01:45:27;;;;;;;5.40;4.70;;;20.10;93.00;;;;;;5073351;28;20149;-84
2023/08/07 01:47:53;;;;;;;5.18;4.68;;;20.10;92.90;;;;;;5073472;28;20222;-84
2023/08/07 01:50:19;;;;;;;5.18;4.63;;;20.10;93.00;;;;;;5073506;28;20166;-86
2023/08/07 01:52:46;;;;;;;5.13;4.60;;;20.10;92.90;;;;;;5056520;28;20168;-86
2023/08/07 01:55:14;;;;;;;5.85;5.18;;;20.10;92.90;;;;;;5073174;28;20278;-87
2023/08/07 01:57:40;;;;;;;5.30;4.55;;;20.10;93.00;;;;;;5072135;28;20150;-86
2023/08/07 02:00:08;;;;;;;4.75;4.25;;;20.10;92.90;;;;;;5073019;28;20282;-83
2023/08/07 02:02:34;;;;;;;5.22;4.72;;;20.10;92.90;;;;;;5072947;28;20146;-86
2023/08/07 02:05:00;;;;;;;5.00;4.50;;;20.10;93.00;;;;;;5073070;28;20173;-86
2023/08/07 02:07:26;;;;;;;5.03;4.53;;;20.10;92.90;;;;;;5073026;28;20145;-86
2023/08/07 02:09:52;;;;;;;5.30;4.80;;;20.10;92.90;;;;;;5074020;28;20236;-85
2023/08/07 02:12:18;;;;;;;5.03;4.47;;;20.10;92.90;;;;;;5055887;28;20228;-87
2023/08/07 02:14:44;;;;;;;5.15;4.65;;;20.20;92.90;;;;;;5073117;28;20512;-85
2023/08/07 02:17:10;;;;;;;5.85;4.78;;;20.10;92.90;;;;;;5073889;28;20154;-85
2023/08/07 02:19:36;;;;;;;4.97;4.47;;;20.10;93.00;;;;;;5055878;28;20176;-87
2023/08/07 02:22:02;;;;;;;5.40;4.63;;;20.10;92.90;;;;;;5072630;28;20154;-88
2023/08/07 02:24:28;;;;;;;5.30;4.80;;;20.10;92.90;;;;;;5072653;28;20169;-87
2023/08/07 02:26:54;;;;;;;5.00;4.50;;;20.10;92.90;;;;;;5072520;28;20518;-84
2023/08/07 02:29:20;;;;;;;4.80;4.30;;;20.10;93.00;;;;;;5055735;28;20173;-86
2023/08/07 02:31:46;;;;;;;5.18;4.40;;;20.10;92.90;;;;;;5072880;28;20248;-86
2023/08/07 02:34:12;;;;;;;5.22;4.20;;;20.10;92.90;;;;;;5072347;28;20721;-85
2023/08/07 02:36:38;;;;;;;4.88;4.38;;;20.10;92.80;;;;;;5055891;28;20215;-84
2023/08/07 02:39:04;;;;;;;5.63;5.03;;;20.10;92.90;;;;;;5055965;28;20169;-86
2023/08/07 02:41:31;;;;;;;5.25;4.72;;;20.10;92.80;;;;;;5072387;28;20201;-86
2023/08/07 02:43:57;;;;;;;5.10;4.60;;;20.10;92.90;;;;;;5055800;28;20175;-84
2023/08/07 02:46:23;;;;;;;5.45;4.93;;;20.10;92.90;;;;;;5073502;28;20529;-85
2023/08/07 02:48:49;;;;;;;4.72;4.28;;;20.20;92.80;;;;;;5072280;28;20154;-85
2023/08/07 02:51:15;;;;;;;5.18;4.68;;;20.10;92.90;;;;;;5072429;28;20164;-86
2023/08/07 02:53:41;;;;;;;5.13;4.07;;;20.10;92.90;;;;;;5055443;28;20223;-83
2023/08/07 02:56:07;;;;;;;5.03;4.53;;;20.10;92.80;;;;;;5055843;28;20257;-83
2023/08/07 02:58:33;;;;;;;4.72;4.22;;;20.10;92.90;;;;;;5072619;28;20177;-86
2023/08/07 03:01:06;;;;;;;5.18;4.68;;;20.10;92.80;;;;;;5072066;28;20189;-85
2023/08/07 03:03:32;;;;;;;4.80;4.30;;;20.10;92.80;;;;;;5072125;28;20208;-84
2023/08/07 03:05:58;;;;;;;5.30;4.80;;;20.10;92.80;;;;;;5072049;28;20253;-85
2023/08/07 03:08:24;;;;;;;5.30;4.78;;;20.10;92.80;;;;;;5073043;28;20185;-86
2023/08/07 03:10:53;;;;;;;5.40;4.30;;;20.10;92.70;;;;;;5071802;28;20220;-86
2023/08/07 03:13:19;;;;;;;4.90;4.40;;;20.10;92.70;;;;;;5072045;28;20153;-85
2023/08/07 03:15:50;;;;;;;5.47;4.40;;;20.10;92.80;;;;;;5071978;28;20634;-85
2023/08/07 03:18:17;;;;;;;5.13;4.45;;;20.10;92.80;;;;;;5054955;28;20275;-84
2023/08/07 03:20:43;;;;;;;5.03;4.50;;;20.10;92.70;;;;;;5071952;28;20193;-85
2023/08/07 03:23:10;;;;;;;4.68;4.22;;;20.10;92.70;;;;;;5055311;28;20157;-84
2023/08/07 03:25:36;;;;;;;4.28;3.88;;;20.10;92.70;;;;;;5055108;28;20162;-84
2023/08/07 03:28:02;;;;;;;5.10;4.60;;;20.00;92.70;;;;;;5071834;28;20207;-85
2023/08/07 03:30:28;;;;;;;5.80;4.82;;;20.10;92.70;;;;;;5055171;28;20165;-87
2023/08/07 03:32:54;;;;;;;5.07;4.57;;;20.10;92.70;;;;;;5073037;28;20160;-84
2023/08/07 03:35:20;;;;;;;5.18;4.68;;;20.10;92.70;;;;;;5071717;28;20154;-84
2023/08/07 03:37:46;;;;;;;4.95;4.28;;;20.10;92.60;;;;;;5072994;28;20153;-85
2023/08/07 03:40:12;;;;;;;5.32;4.60;;;20.20;92.60;;;;;;5071629;28;20189;-84
2023/08/07 03:42:38;;;;;;;5.22;4.72;;;20.10;92.60;;;;;;5071684;28;20153;-86
2023/08/07 03:45:04;;;;;;;5.20;4.70;;;20.10;92.60;;;;;;5054978;28;20245;-86
2023/08/07 03:47:30;;;;;;;4.97;4.32;;;20.10;92.70;;;;;;5071932;28;20158;-84
2023/08/07 03:49:56;;;;;;;5.15;4.50;;;20.10;92.60;;;;;;5072886;28;20165;-86
2023/08/07 03:52:22;;;;;;;5.47;4.88;;;20.10;92.60;;;;;;5073366;28;20158;-86
2023/08/07 03:54:48;;;;;;;5.20;4.55;;;20.00;92.70;;;;;;5071498;28;20165;-84
2023/08/07 03:57:14;;;;;;;5.03;4.47;;;20.10;92.70;;;;;;5072865;28;20179;-87
2023/08/07 03:59:40;;;;;;;5.68;5.07;;;20.10;92.60;;;;;;5071421;28;20157;-87
2023/08/07 04:02:06;;;;;;;5.20;4.70;;;20.10;92.60;;;;;;5071505;28;20157;-85
2023/08/07 04:04:32;;;;;;;4.97;4.47;;;20.10;92.60;;;;;;5071629;28;20158;-84
2023/08/07 04:06:58;;;;;;;5.60;4.80;;;20.10;92.50;;;;;;5071507;28;20154;-86
2023/08/07 04:09:23;;;;;;;5.03;4.53;;;20.10;92.60;;;;;;5071455;28;20192;-84
2023/08/07 04:11:49;;;;;;;5.40;4.80;;;20.00;92.60;;;;;;5071202;28;20228;-84
2023/08/07 04:14:16;;;;;;;5.15;4.53;;;20.10;92.60;;;;;;5071860;28;20182;-83
2023/08/07 04:16:43;;;;;;;5.57;4.47;;;20.10;92.60;;;;;;5072608;28;20153;-85
2023/08/07 04:19:09;;;;;;;5.82;5.15;;;20.10;92.60;;;;;;5071266;28;20586;-86
2023/08/07 04:21:35;;;;;;;4.95;4.45;;;20.10;92.60;;;;;;5074378;28;20185;-83
2023/08/07 04:24:01;;;;;;;5.30;4.75;;;20.10;92.60;;;;;;5075270;28;20157;-85
2023/08/07 04:26:27;;;;;;;4.65;4.25;;;20.10;92.60;;;;;;5074844;28;20256;-84
2023/08/07 04:28:53;;;;;;;5.18;4.65;;;20.10;92.60;;;;;;5076126;28;20196;-83
2023/08/07 04:31:19;;;;;;;5.13;4.63;;;20.10;92.60;;;;;;5076232;28;20192;-87
2023/08/07 04:33:45;;;;;;;5.38;4.88;;;20.10;92.60;;;;;;5075900;28;20165;-86
2023/08/07 04:36:11;;;;;;;5.47;4.72;;;20.20;92.70;;;;;;5075197;28;20150;-85
2023/08/07 04:38:37;;;;;;;5.13;4.63;;;20.10;92.60;;;;;;5074719;28;20202;-86
2023/08/07 04:41:03;;;;;;;5.20;4.45;;;20.10;92.60;;;;;;5075942;28;20671;-86
2023/08/07 04:43:29;;;;;;;5.43;4.88;;;20.10;92.60;;;;;;5075885;28;20185;-86
2023/08/07 04:45:55;;;;;;;5.63;5.03;;;20.10;92.60;;;;;;5075783;28;20516;-85
2023/08/07 04:48:22;;;;;;;5.15;4.65;;;20.00;92.60;;;;;;5074694;28;20205;-87
2023/08/07 04:50:48;;;;;;;5.60;4.72;;;20.10;92.60;;;;;;5057774;28;20181;-84
2023/08/07 04:53:14;;;;;;;5.22;4.57;;;20.10;92.60;;;;;;5075574;28;20237;-86
2023/08/07 04:55:40;;;;;;;4.90;4.40;;;20.10;92.60;;;;;;5074380;28;20279;-86
2023/08/07 04:58:06;;;;;;;4.90;4.43;;;20.10;92.60;;;;;;5058348;28;20481;-85
2023/08/07 05:00:32;;;;;;;5.00;4.50;;;20.10;92.60;;;;;;5075399;28;20533;-86
2023/08/07 05:02:58;;;;;;;4.82;4.32;;;20.10;92.50;;;;;;5074187;28;20158;-86
2023/08/07 05:05:24;;;;;;;5.97;4.80;;;20.10;92.40;;;;;;5074145;28;20165;-88
2023/08/07 05:07:50;;;;;;;5.78;4.88;;;20.10;92.40;;;;;;5074157;28;20505;-88
2023/08/07 05:10:16;;;;;;;4.95;4.45;;;20.10;92.50;;;;;;5074185;28;20164;-88
2023/08/07 05:12:42;;;;;;;5.55;4.80;;;20.10;92.60;;;;;;5073852;28;20650;-86
2023/08/07 05:15:08;;;;;;;5.22;4.50;;;20.10;92.60;;;;;;5074227;28;20227;-86
2023/08/07 05:17:34;;;;;;;5.03;4.53;;;20.10;92.60;;;;;;5074260;28;20184;-85
2023/08/07 05:20:00;;;;;;;5.00;4.50;;;20.10;92.60;;;;;;5074994;28;20193;-85
2023/08/07 05:22:26;;;;;;;4.78;4.35;;;20.10;92.50;;;;;;5075527;28;20604;-86
2023/08/07 05:24:52;;;;;;;5.22;4.72;;;20.20;92.50;;;;;;5073646;28;20169;-83
2023/08/07 05:27:17;;;;;;;5.10;4.60;;;20.20;92.50;;;;;;5074962;28;20153;-85
2023/08/07 05:29:44;;;;;;;5.00;4.50;;;20.20;92.50;;;;;;5073923;28;20167;-83
2023/08/07 05:32:13;;;;;;;5.03;4.53;;;20.10;92.40;;;;;;5057608;28;20222;-85
2023/08/07 05:34:39;;;;;;;5.32;4.70;;;20.20;92.40;;;;;;5075116;28;20183;-85
2023/08/07 05:37:06;;;;;;;4.85;4.35;;;20.20;92.40;;;;;;5056807;28;20251;-84
2023/08/07 05:39:32;;;;;;;5.00;4.50;;;20.20;92.40;;;;;;5073492;28;20169;-88
2023/08/07 05:41:58;;;;;;;5.00;4.50;;;20.20;92.50;;;;;;5073462;28;20181;-85
2023/08/07 05:44:24;;;;;;;5.80;4.95;;;20.10;92.70;;;;;;5073727;28;20172;-86
2023/08/07 05:46:50;;;;;;;5.80;5.15;;;20.20;93.10;;;;;;5056878;28;20168;-85
2023/08/07 05:49:16;;;;;;;5.88;5.28;;;20.20;93.60;;;;;;5056829;28;20158;-85
2023/08/07 05:51:42;;;;;;;5.78;5.18;;;20.20;93.40;;;;;;5073095;28;20165;-86
2023/08/07 05:54:08;;;;;;;5.93;5.32;;;20.30;93.30;;;;;;5075223;28;20162;-87
2023/08/07 05:56:34;;;;;;;6.80;5.65;;;20.30;93.40;;;;;;5072665;28;20252;-86
2023/08/07 05:59:00;;;;;;;5.82;5.30;;;20.30;93.70;;;;;;5056450;28;20161;-86
2023/08/07 06:01:30;;;;;;;6.70;6.00;;;20.30;94.20;;;;;;5072866;28;20675;-86
2023/08/07 06:03:57;;;;;;;6.47;5.88;;;20.40;94.50;;;;;;5072831;28;20655;-86
2023/08/07 06:06:23;;;;;;;6.30;5.70;;;20.40;94.50;;;;;;5074111;28;20157;-87
2023/08/07 06:08:49;;;;;;;6.07;5.47;;;20.40;94.40;;;;;;5056219;28;20168;-86
2023/08/07 06:11:15;;;;;;;6.38;5.78;;;20.40;94.20;;;;;;5074007;28;20217;-86
2023/08/07 06:13:41;;;;;;;6.45;5.85;;;20.50;94.30;;;;;;5074559;28;20205;-87
2023/08/07 06:16:07;;;;;;;6.47;5.72;;;20.50;94.40;;;;;;5056115;28;20165;-86
2023/08/07 06:18:33;;;;;;;5.93;5.38;;;20.40;94.70;;;;;;5072950;28;20153;-85
2023/08/07 06:20:59;;;;;;;7.60;6.22;;;20.40;94.70;;;;;;5040259;28;20208;-86
2023/08/07 06:23:25;;;;;;;6.90;6.20;;;20.50;95.50;;;;;;5055980;28;20214;-86
2023/08/07 06:25:51;;;;;;;7.35;6.65;;;20.40;95.10;;;;;;5056368;28;20252;-86
2023/08/07 06:28:17;;;;;;;6.50;5.90;;;20.50;95.40;;;;;;5072536;28;20162;-87
2023/08/07 06:30:43;;;;;;;7.18;6.47;;;20.40;95.10;;;;;;5072831;28;20241;-86
2023/08/07 06:33:10;;;;;;;8.02;7.00;;;20.50;95.50;;;;;;5074053;28;20157;-87
2023/08/07 06:35:48;;;;;;;7.10;6.40;;;20.50;95.60;;;;;;5057130;28;20165;-88
2023/08/07 06:38:14;;;;;;;8.05;7.25;;;20.70;95.30;;;;;;5072539;28;20160;-86
2023/08/07 06:40:44;;;;;;;7.30;6.60;;;20.70;96.10;;;;;;5074137;28;20204;-89
2023/08/07 06:43:10;;;;;;;7.95;7.15;;;20.70;95.70;;;;;;5072155;28;20627;-86
2023/08/07 06:45:36;;;;;;;7.25;6.53;;;20.70;96.10;;;;;;5055628;28;20665;-86
2023/08/07 06:48:02;;;;;;;7.47;6.68;;;20.80;95.70;;;;;;5072307;28;20157;-86
2023/08/07 06:50:27;;;;;;;8.88;7.75;;;20.80;96.00;;;;;;5055577;28;20172;-86
2023/08/07 06:52:54;;;;;;;7.47;6.78;;;20.80;95.90;;;;;;5072285;28;20546;-86
2023/08/07 06:55:20;;;;;;;8.10;7.28;;;20.80;95.90;;;;;;5073383;28;20173;-86
2023/08/07 06:57:46;;;;;;;8.30;7.50;;;20.70;95.90;;;;;;5072153;28;20161;-87
2023/08/07 07:00:12;;;;;;;8.35;7.53;;;20.70;96.60;;;;;;5072818;28;20731;-87
2023/08/07 07:02:38;;;;;;;7.68;6.88;;;20.70;97.00;;;;;;5071990;28;20161;-86
2023/08/07 07:05:04;;;;;;;7.90;7.10;;;20.70;96.50;;;;;;5073509;28;20493;-86
2023/08/07 07:07:30;;;;;;;8.65;7.75;;;20.60;96.70;;;;;;5072127;28;20149;-87
2023/08/07 07:10:00;;;;;;;8.30;7.40;;;20.60;96.90;;;;;;5055301;28;20175;-87
2023/08/07 07:12:26;;;;;;;8.48;7.60;;;20.70;96.90;;;;;;5055655;28;20687;-87
2023/08/07 07:14:53;;;;;;;8.32;7.43;;;20.60;96.80;;;;;;5073212;28;20161;-87
2023/08/07 07:17:19;;;;;;;9.10;7.72;;;20.70;97.00;;;;;;5055204;28;20219;-87
2023/08/07 07:19:45;;;;;;;8.77;7.88;;;20.70;97.10;;;;;;5055938;28;20166;-87
2023/08/07 07:22:11;;;;;;;8.75;7.85;;;20.70;97.20;;;;;;5072245;28;20176;-87
2023/08/07 07:24:37;;;;;;;9.20;8.30;;;20.80;97.10;;;;;;5073120;28;20527;-87
2023/08/07 07:27:03;;;;;;;8.90;8.00;;;20.80;97.20;;;;;;5072331;28;20546;-87
2023/08/07 07:29:29;;;;;;;8.55;7.57;;;20.80;97.20;;;;;;5071853;28;20236;-86
2023/08/07 07:31:55;;;;;;;9.90;8.88;;;20.80;97.20;;;;;;5072312;28;20161;-86
2023/08/07 07:34:22;;;;;;;9.10;8.20;;;20.80;97.10;;;;;;5055603;28;20240;-87
2023/08/07 07:36:48;;;;;;;9.50;8.52;;;20.80;97.10;;;;;;5072044;28;20157;-87
2023/08/07 07:39:14;;;;;;;9.85;8.85;;;20.80;97.30;;;;;;5073119;28;20158;-87
2023/08/07 07:41:40;;;;;;;9.70;8.50;;;20.80;97.40;;;;;;5054900;28;20254;-87
2023/08/07 07:44:06;;;;;;;9.77;8.80;;;20.90;97.60;;;;;;5071703;28;20157;-87
2023/08/07 07:46:32;;;;;;;10.52;8.27;;;20.90;97.80;;;;;;5055776;28;20524;-87
2023/08/07 07:48:59;;;;;;;10.02;9.02;;;20.80;97.50;;;;;;5074928;28;20616;-88
2023/08/07 07:51:25;;;;;;;9.98;8.82;;;20.90;97.70;;;;;;5057748;28;20286;-87
2023/08/07 07:53:51;;;;;;;9.88;8.88;;;20.80;97.80;;;;;;5055589;28;20162;-87
2023/08/07 07:56:17;;;;;;;10.18;9.18;;;20.90;97.90;;;;;;5057735;28;20170;-87
2023/08/07 07:58:43;;;;;;;9.95;8.95;;;20.90;98.20;;;;;;5076666;28;20529;-87
2023/08/07 08:01:09;;;;;;;10.20;9.20;;;20.80;98.20;;;;;;5059076;28;20211;-87
2023/08/07 08:03:35;;;;;;;11.00;9.90;;;20.90;98.40;;;;;;5059049;28;20189;-88
2023/08/07 08:06:01;;;;;;;10.05;9.05;;;20.90;98.40;;;;;;5076523;28;20157;-87
2023/08/07 08:08:27;;;;;;;11.00;9.90;;;20.90;98.50;;;;;;5075267;28;20161;-88
2023/08/07 08:10:53;;;;;;;10.95;9.52;;;20.90;98.60;;;;;;5075344;28;20583;-87
2023/08/07 08:13:19;;;;;;;10.77;9.68;;;20.90;98.90;;;;;;5058442;28;20165;-87
2023/08/07 08:15:45;;;;;;;11.77;10.57;;;21.00;98.90;;;;;;5074974;28;20248;-87
2023/08/07 08:18:11;;;;;;;11.35;10.18;;;21.00;99.20;;;;;;5058352;28;20161;-87
2023/08/07 08:20:37;;;;;;;11.18;9.95;;;20.90;99.20;;;;;;5075259;28;20208;-87
2023/08/07 08:23:04;;;;;;;11.05;9.95;;;21.00;99.20;;;;;;5075287;28;20161;-88
2023/08/07 08:25:32;;;;;;;12.30;11.00;;;20.90;99.50;;;;;;5075142;28;20161;-87
2023/08/07 08:27:59;;;;;;;12.07;10.88;;;21.00;99.50;;;;;;5075542;28;20201;-88
2023/08/07 08:30:25;;;;;;;11.90;10.70;;;21.00;99.60;;;;;;5059086;28;20170;-87
2023/08/07 08:32:51;;;;;;;12.52;10.93;;;21.00;99.70;;;;;;5074783;28;20161;-87
2023/08/07 08:35:17;;;;;;;11.68;10.48;;;21.00;99.70;;;;;;5058013;28;20165;-87
2023/08/07 08:37:43;;;;;;;11.73;10.52;;;21.00;99.70;;;;;;5058254;28;20157;-87
2023/08/07 08:40:16;;;;;;;11.98;10.77;;;21.00;99.90;;;;;;5075742;28;20604;-87
2023/08/07 08:42:44;;;;;;;11.60;10.45;;;21.00;99.80;;;;;;5074762;28;20181;-87
2023/08/07 08:45:15;;;;;;;11.60;10.40;;;21.10;99.70;;;;;;5074703;28;20172;-87
2023/08/07 08:47:42;;;;;;;12.35;11.05;;;21.10;99.60;;;;;;5057099;28;20535;-87
2023/08/07 08:50:09;;;;;;;12.18;10.95;;;21.10;99.70;;;;;;5074445;28;20171;-87
2023/08/07 08:52:38;;;;;;;11.98;10.77;;;21.10;99.80;;;;;;5074313;28;20245;-87
2023/08/07 08:55:04;;;;;;;12.90;11.50;;;21.10;99.90;;;;;;5074231;28;20153;-86
2023/08/07 08:57:30;;;;;;;12.10;10.75;;;21.10;99.90;;;;;;5074723;28;20150;-87
2023/08/07 08:59:57;;;;;;;12.13;10.82;;;21.20;99.70;;;;;;5058216;28;20262;-87
2023/08/07 09:02:22;;;;;;;13.15;11.70;;;21.20;99.90;;;;;;5074485;28;20166;-87
2023/08/07 09:04:48;;;;;;;12.70;10.88;;;21.10;99.90;;;;;;5074514;28;20158;-87
2023/08/07 09:07:15;;;;;;;12.77;11.48;;;21.10;99.90;;;;;;5040393;28;20158;-87
2023/08/07 09:09:41;;;;;;;14.95;12.10;;;21.10;99.90;;;;;;5042061;28;20606;-88
2023/08/07 09:12:08;;;;;;;14.13;11.90;;;21.20;99.90;;;;;;5075183;28;20216;-87
2023/08/07 09:14:34;;;;;;;11.95;10.68;;;21.20;99.90;;;;;;5076215;28;20261;-87
2023/08/07 09:17:00;;;;;;;13.52;12.00;;;21.20;99.90;;;;;;5075810;28;20660;-86
2023/08/07 09:19:28;;;;;;;13.77;12.10;;;21.20;99.90;;;;;;5081707;28;20196;-86
2023/08/07 09:21:54;;;;;;;13.30;11.90;;;21.20;99.90;;;;;;5073497;28;20205;-87
2023/08/07 09:24:21;;;;;;;14.73;11.80;;;21.30;99.90;;;;;;5072307;28;20158;-86
2023/08/07 09:26:49;;;;;;;13.10;11.70;;;21.30;99.90;;;;;;5054770;28;20264;-87
2023/08/07 09:29:15;;;;;;;13.52;12.13;;;21.20;99.90;;;;;;5054584;28;20164;-87
2023/08/07 09:31:45;;;;;;;13.48;11.88;;;21.20;99.90;;;;;;5054510;28;20241;-87
2023/08/07 09:34:13;;;;;;;12.65;11.35;;;21.20;99.90;;;;;;5071188;28;20154;-87
2023/08/07 09:36:39;;;;;;;12.68;11.38;;;21.20;99.90;;;;;;5054731;28;20174;-86
2023/08/07 09:39:05;;;;;;;13.15;11.73;;;21.20;99.90;;;;;;5054556;28;20605;-87
2023/08/07 09:41:31;;;;;;;13.02;11.73;;;21.20;99.90;;;;;;5037121;28;20792;-86
2023/08/07 09:43:57;;;;;;;12.90;11.60;;;21.20;99.90;;;;;;5070996;28;20154;-87
2023/08/07 09:46:23;;;;;;;14.25;11.88;;;21.30;99.90;;;;;;5084334;28;20161;-87
2023/08/07 09:48:48;;;;;;;13.70;11.98;;;21.30;99.90;;;;;;5074549;28;20530;-87
2023/08/07 09:51:14;;;;;;;13.20;11.80;;;21.30;99.90;;;;;;5074496;28;20585;-86
2023/08/07 09:53:40;;;;;;;13.32;11.93;;;21.30;99.90;;;;;;5073373;28;20172;-87
2023/08/07 09:56:06;;;;;;;13.27;11.88;;;21.30;99.90;;;;;;5057227;28;20166;-86
2023/08/07 09:58:31;;;;;;;13.10;11.80;;;21.30;99.90;;;;;;5073054;28;20157;-87
2023/08/07 10:01:00;;;;;;;15.05;12.50;;;21.40;99.90;;;;;;5056299;28;20197;-87
2023/08/07 10:03:26;;;;;;;13.20;11.50;;;21.40;99.90;;;;;;5056977;28;20264;-87
2023/08/07 10:05:52;;;;;;;13.07;11.70;;;21.40;99.90;;;;;;5084197;28;20256;-86
2023/08/07 10:08:18;;;;;;;13.90;12.43;;;21.40;99.90;;;;;;5036947;28;20620;-86
2023/08/07 10:10:44;;;;;;;15.45;12.48;;;21.40;99.90;;;;;;5036976;28;20501;-87
2023/08/07 10:13:10;;;;;;;13.93;12.35;;;21.40;99.90;;;;;;5056147;28;20166;-86
2023/08/07 10:15:36;;;;;;;13.50;12.10;;;21.30;99.90;;;;;;5072957;28;20180;-86
2023/08/07 10:18:02;;;;;;;13.40;12.00;;;21.50;99.90;;;;;;5055459;28;20162;-87
2023/08/07 10:20:29;;;;;;;13.65;12.25;;;21.40;99.90;;;;;;5073816;28;20205;-86
2023/08/07 10:23:11;;;;;;;13.93;12.45;;;21.50;99.90;;;;;;5072849;28;20161;-86
2023/08/07 10:25:41;;;;;;;14.13;12.60;;;21.40;99.90;;;;;;5055850;28;20590;-86
2023/08/07 10:28:10;;;;;;;13.48;11.88;;;21.40;99.90;;;;;;5072458;28;20158;-86
2023/08/07 10:30:36;;;;;;;13.05;11.68;;;21.50;99.90;;;;;;5073862;28;20157;-86
2023/08/07 10:33:02;;;;;;;13.80;12.40;;;21.50;99.90;;;;;;5074226;28;20153;-86
2023/08/07 10:35:32;;;;;;;13.57;12.18;;;21.50;99.90;;;;;;5072284;28;20624;-87
2023/08/07 10:38:07;;;;;;;14.05;12.50;;;21.40;99.90;;;;;;5072932;28;20168;-87
2023/08/07 10:40:33;;;;;;;13.45;12.05;;;21.50;99.90;;;;;;5073504;28;20193;-86
2023/08/07 10:43:11;;;;;;;13.48;12.13;;;21.50;99.90;;;;;;5074117;28;20171;-86
2023/08/07 10:45:38;;;;;;;13.23;11.90;;;21.50;99.90;;;;;;5073585;28;20153;-87
2023/08/07 10:48:17;;;;;;;13.45;12.02;;;21.50;99.90;;;;;;5058197;28;20269;-86
2023/08/07 10:50:57;;;;;;;13.20;11.75;;;21.50;99.90;;;;;;5075094;28;20184;-86
2023/08/07 10:53:33;;;;;;;14.68;12.88;;;21.40;99.90;;;;;;5073511;28;20170;-86
2023/08/07 10:56:04;;;;;;;13.45;11.98;;;21.50;99.90;;;;;;5056646;28;20157;-87
2023/08/07 10:58:32;;;;;;;13.65;12.25;;;21.50;99.90;;;;;;5074735;28;20181;-87
2023/08/07 11:01:19;;;;;;;13.70;12.30;;;21.50;99.90;;;;;;5072902;28;20283;-86
2023/08/07 11:03:48;;;;;;;13.55;12.15;;;21.60;99.90;;;;;;5074143;28;20174;-86
2023/08/07 11:06:14;;;;;;;14.23;12.73;;;21.60;99.90;;;;;;5056113;28;20252;-86
2023/08/07 11:08:41;;;;;;;14.35;12.77;;;21.50;99.90;;;;;;5072398;28;20150;-86
2023/08/07 11:11:07;;;;;;;14.50;13.00;;;21.50;99.90;;;;;;5073483;28;20731;-86
2023/08/07 11:13:34;;;;;;;14.50;13.00;;;21.60;99.90;;;;;;5089328;28;20196;-85
2023/08/07 11:16:02;;;;;;;13.90;12.18;;;21.50;99.90;;;;;;5072144;28;20154;-86
2023/08/07 11:18:27;;;;;;;13.77;12.35;;;21.50;99.90;;;;;;5072272;28;20207;-86
2023/08/07 11:20:56;;;;;;;14.68;13.10;;;21.50;99.90;;;;;;5055213;28;20205;-86
2023/08/07 11:23:25;;;;;;;14.43;12.77;;;21.50;99.90;;;;;;5071881;28;20264;-86
2023/08/07 11:25:52;;;;;;;14.52;13.02;;;21.60;99.90;;;;;;5055451;28;20166;-86
2023/08/07 11:28:19;;;;;;;14.52;13.02;;;21.60;99.90;;;;;;5056060;28;20669;-86
2023/08/07 11:30:50;;;;;;;14.25;12.75;;;21.60;99.90;;;;;;5059522;28;20169;-86
2023/08/07 11:33:17;;;;;;;16.38;13.13;;;21.60;99.90;;;;;;5060225;28;20169;-86
2023/08/07 11:35:43;;;;;;;14.75;13.15;;;21.50;99.90;;;;;;5076472;28;20157;-86
2023/08/07 11:38:09;;;;;;;14.57;12.68;;;21.60;99.90;;;;;;5059306;28;20158;-86
2023/08/07 11:40:35;;;;;;;14.52;13.00;;;21.60;99.90;;;;;;5076237;28;20185;-86
2023/08/07 11:43:02;;;;;;;14.07;12.57;;;21.60;99.90;;;;;;5076081;28;20466;-86
2023/08/07 11:45:28;;;;;;;14.20;12.70;;;21.60;99.90;;;;;;5060140;28;20408;-86
2023/08/07 11:47:55;;;;;;;14.07;12.55;;;21.60;99.90;;;;;;5059950;28;20177;-87
2023/08/07 11:50:23;;;;;;;13.90;12.40;;;21.50;99.90;;;;;;5076360;28;20180;-86
2023/08/07 11:52:48;;;;;;;13.90;12.50;;;21.60;99.90;;;;;;5075578;28;20157;-86
2023/08/07 11:55:15;;;;;;;14.10;12.65;;;21.60;99.90;;;;;;5058840;28;20623;-86
2023/08/07 11:57:43;;;;;;;15.05;13.23;;;21.60;99.90;;;;;;5058695;28;20667;-86
2023/08/07 12:00:13;;;;;;;15.32;12.90;;;21.60;99.90;;;;;;5059050;28;20213;-86
2023/08/07 12:02:46;;;;;;;15.82;13.70;;;21.60;99.90;;;;;;5077000;28;20154;-86
2023/08/07 12:05:12;;;;;;;14.05;12.55;;;21.60;99.90;;;;;;5075439;28;20176;-86
2023/08/07 12:07:44;;;;;;;15.27;13.43;;;21.60;99.90;;;;;;5075737;28;20190;-86
2023/08/07 12:10:10;;;;;;;13.88;12.48;;;21.70;99.90;;;;;;5075284;28;20189;-86
2023/08/07 12:12:44;;;;;;;14.30;12.55;;;21.70;99.90;;;;;;5058520;28;20252;-87
2023/08/07 12:15:10;;;;;;;14.48;12.93;;;21.60;99.90;;;;;;5075819;28;20625;-86
2023/08/07 12:17:46;;;;;;;14.05;12.50;;;21.70;99.90;;;;;;5076569;28;20631;-87
2023/08/07 12:20:12;;;;;;;14.60;12.95;;;21.70;99.90;;;;;;5074884;28;20205;-86
2023/08/07 12:22:46;;;;;;;14.52;13.02;;;21.70;99.90;;;;;;5075175;28;20185;-86
2023/08/07 12:25:12;;;;;;;14.70;13.13;;;21.70;99.90;;;;;;5075286;28;20566;-86
2023/08/07 12:27:50;;;;;;;14.63;12.93;;;21.80;99.90;;;;;;5076235;28;20162;-86
2023/08/07 12:30:16;;;;;;;14.63;12.65;;;21.70;99.90;;;;;;5076373;28;20214;-86
2023/08/07 12:32:51;;;;;;;15.13;12.55;;;21.80;99.90;;;;;;5074792;28;20236;-87
2023/08/07 12:35:17;;;;;;;14.45;12.90;;;21.70;99.90;;;;;;5074996;28;20600;-86
2023/08/07 12:37:52;;;;;;;15.65;13.25;;;21.80;99.90;;;;;;5058937;28;20168;-86
2023/08/07 12:40:20;;;;;;;16.10;13.05;;;21.80;99.90;;;;;;5075757;28;20193;-86